Time;durP1;ratioP1;P1;durP2;ratioP2;P2;SDS_P1;SDS_P2;PMS_P1;PMS_P2;Temp;Humidity;BMP_temperature;BMP_pressure;BME280_temperature;BME280_humidity;BME280_pressure;Samples;Min_cycle;Max_cycle;Signal;HPM_P1;HPM_P2
2022/08/24 00:00:47;;;;;;;0.10;0.10;;;;;;;20.30;78.72;101884.44;10371295;28;20030;-77
2022/08/24 00:05:47;;;;;;;0.00;0.00;;;;;;;20.28;78.91;101891.06;10370224;28;20017;-77
2022/08/24 00:10:48;;;;;;;0.10;0.10;;;;;;;20.23;79.62;101886.25;10386663;28;20021;-77
2022/08/24 00:15:48;;;;;;;0.10;0.10;;;;;;;20.18;79.51;101885.16;10410121;28;20024;-77
2022/08/24 00:20:49;;;;;;;0.10;0.10;;;;;;;20.10;79.76;101888.84;10410500;28;20283;-77
2022/08/24 00:25:50;;;;;;;0.10;0.10;;;;;;;20.04;80.88;101881.50;10400639;28;20021;-77
2022/08/24 00:30:51;;;;;;;0.10;0.10;;;;;;;19.94;81.33;101887.25;10369773;28;20397;-77
2022/08/24 00:35:52;;;;;;;0.10;0.10;;;;;;;19.87;81.17;101889.09;10368227;28;20084;-77
2022/08/24 00:40:52;;;;;;;0.00;0.00;;;;;;;19.82;81.33;101895.06;10377102;28;20087;-77
2022/08/24 00:45:52;;;;;;;0.10;0.10;;;;;;;19.75;81.80;101899.59;10382259;28;20022;-77
2022/08/24 00:50:59;;;;;;;0.10;0.10;;;;;;;19.70;81.61;101893.94;10369667;28;20109;-77
2022/08/24 00:56:04;;;;;;;0.10;0.10;;;;;;;19.64;82.32;101894.66;10369548;28;20022;-77
2022/08/24 01:01:06;;;;;;;0.10;0.10;;;;;;;19.53;83.15;101904.13;10368675;28;20030;-77
2022/08/24 01:06:07;;;;;;;0.07;0.07;;;;;;;19.48;83.37;101903.00;10365938;28;20080;-77
2022/08/24 01:11:14;;;;;;;0.00;0.00;;;;;;;19.46;82.77;101903.22;10366166;28;20034;-78
2022/08/24 01:18:48;;;;;;;0.10;0.10;;;;;;;19.37;83.46;101898.94;10383761;28;20026;-77
2022/08/24 01:21:53;;;;;;;0.10;0.10;;;;;;;19.29;83.74;101899.91;10403545;28;20473;-77
2022/08/24 01:26:53;;;;;;;0.10;0.10;;;;;;;19.19;84.74;101904.78;10390458;28;20393;-77
2022/08/24 01:31:53;;;;;;;0.00;0.00;;;;;;;19.15;84.48;101908.88;10366398;28;20129;-77
2022/08/24 01:36:55;;;;;;;0.10;0.10;;;;;;;19.11;85.68;101897.63;10368232;28;20022;-77
2022/08/24 01:41:56;;;;;;;0.10;0.10;;;;;;;18.97;86.50;101896.63;10367789;28;20477;-77
2022/08/24 01:46:57;;;;;;;0.00;0.00;;;;;;;18.83;87.66;101897.47;10366343;28;20026;-77
2022/08/24 01:51:57;;;;;;;0.00;0.00;;;;;;;18.69;88.91;101892.91;10373292;28;20030;-77
2022/08/24 01:56:58;;;;;;;0.10;0.10;;;;;;;18.58;89.30;101901.47;10368050;28;20029;-77
2022/08/24 02:02:08;;;;;;;0.10;0.10;;;;;;;18.44;90.56;101898.59;10366508;28;20173;-77
2022/08/24 02:07:08;;;;;;;0.10;0.10;;;;;;;18.37;91.93;101905.72;10365191;28;20044;-77
2022/08/24 02:12:09;;;;;;;0.10;0.10;;;;;;;18.25;93.13;101902.63;10367312;28;20045;-77
2022/08/24 02:17:10;;;;;;;0.00;0.00;;;;;;;18.09;94.75;101898.25;10365626;28;20018;-77
2022/08/24 02:22:10;;;;;;;0.00;0.00;;;;;;;17.87;96.98;101917.97;10366801;28;20034;-77
2022/08/24 02:27:15;;;;;;;0.10;0.10;;;;;;;17.57;99.50;101908.88;10370514;28;20029;-77
2022/08/24 02:32:15;;;;;;;0.10;0.10;;;;;;;17.37;100.00;101905.84;10364329;28;20393;-76
2022/08/24 02:37:15;;;;;;;0.00;0.00;;;;;;;17.24;100.00;101916.34;10366064;28;20020;-77
2022/08/24 02:42:16;;;;;;;0.10;0.10;;;;;;;17.12;100.00;101927.50;10366194;28;20484;-77
2022/08/24 02:47:16;;;;;;;0.10;0.10;;;;;;;16.97;100.00;101924.72;10366246;28;20386;-77
2022/08/24 02:52:17;;;;;;;0.10;0.10;;;;;;;16.86;100.00;101910.81;10366809;28;20022;-76
2022/08/24 02:57:17;;;;;;;0.10;0.10;;;;;;;16.72;100.00;101913.16;10365562;28;20045;-76
2022/08/24 03:02:17;;;;;;;0.13;0.13;;;;;;;16.62;100.00;101906.31;10394452;28;20029;-76
2022/08/24 03:07:18;;;;;;;0.10;0.10;;;;;;;16.50;100.00;101913.91;10415743;28;20484;-76
2022/08/24 03:12:19;;;;;;;0.10;0.10;;;;;;;16.35;100.00;101903.03;10414478;28;20028;-77
2022/08/24 03:17:19;;;;;;;0.10;0.10;;;;;;;16.22;100.00;101908.91;10414518;28;20167;-76
2022/08/24 03:22:20;;;;;;;0.10;0.10;;;;;;;16.14;100.00;101914.28;10395314;28;20087;-76
2022/08/24 03:27:20;;;;;;;0.10;0.10;;;;;;;16.18;100.00;101912.13;10392215;28;20029;-76
2022/08/24 03:32:21;;;;;;;0.10;0.10;;;;;;;16.19;100.00;101914.63;10371794;28;20277;-76
2022/08/24 03:37:21;;;;;;;0.10;0.10;;;;;;;16.14;100.00;101913.44;10377066;28;20018;-75
2022/08/24 03:42:21;;;;;;;0.10;0.10;;;;;;;16.07;100.00;101918.66;10384707;28;20029;-73
2022/08/24 03:47:22;;;;;;;0.10;0.10;;;;;;;16.02;100.00;101912.94;10371011;28;20123;-75
2022/08/24 03:52:22;;;;;;;0.10;0.10;;;;;;;15.99;100.00;101918.66;10372681;28;20030;-75
2022/08/24 03:57:23;;;;;;;0.00;0.00;;;;;;;15.94;100.00;101921.88;10372287;28;20036;-74
2022/08/24 04:02:23;;;;;;;0.08;0.08;;;;;;;15.89;100.00;101923.38;10372361;28;20109;-74
2022/08/24 04:07:24;;;;;;;0.10;0.10;;;;;;;15.76;100.00;101930.06;10372029;28;20454;-75
2022/08/24 04:12:25;;;;;;;0.10;0.10;;;;;;;15.67;100.00;101922.16;10372105;28;20100;-74
2022/08/24 04:17:25;;;;;;;0.10;0.10;;;;;;;15.71;100.00;101923.53;10371482;28;20461;-74
2022/08/24 04:22:28;;;;;;;0.10;0.10;;;;;;;15.83;100.00;101931.09;10372538;28;20026;-74
2022/08/24 04:27:28;;;;;;;0.10;0.10;;;;;;;16.10;100.00;101926.41;10373415;28;20040;-74
2022/08/24 04:32:30;;;;;;;0.10;0.10;;;;;;;16.50;100.00;101930.06;10372158;28;20492;-74
2022/08/24 04:37:31;;;;;;;0.10;0.10;;;;;;;17.08;100.00;101936.97;10369821;28;20042;-74
2022/08/24 04:42:31;;;;;;;0.10;0.10;;;;;;;17.67;100.00;101935.63;10371183;28;20113;-75
2022/08/24 04:47:32;;;;;;;0.10;0.10;;;;;;;18.13;100.00;101941.84;10397776;28;20104;-74
2022/08/24 04:52:32;;;;;;;0.10;0.10;;;;;;;18.67;100.00;101946.22;10411591;28;20021;-75
2022/08/24 04:57:33;;;;;;;0.10;0.10;;;;;;;19.15;100.00;101941.28;10387471;28;20014;-75
2022/08/24 05:02:33;;;;;;;0.10;0.10;;;;;;;19.57;100.00;101948.63;10369953;28;20509;-75
2022/08/24 05:07:35;;;;;;;0.03;0.03;;;;;;;20.15;100.00;101953.16;10369571;28;20017;-75
2022/08/24 05:12:35;;;;;;;0.10;0.10;;;;;;;20.70;100.00;101952.34;10399626;28;20036;-75
2022/08/24 05:17:36;;;;;;;0.10;0.10;;;;;;;21.32;100.00;101957.84;10408388;28;20021;-75
2022/08/24 05:22:36;;;;;;;0.00;0.00;;;;;;;21.88;100.00;101971.19;10391500;28;20029;-75
2022/08/24 05:27:37;;;;;;;0.10;0.10;;;;;;;22.54;98.27;101968.53;10368709;28;20030;-75
2022/08/24 05:32:37;;;;;;;0.00;0.00;;;;;;;23.01;96.32;101982.84;10368904;28;20501;-75
2022/08/24 05:37:38;;;;;;;0.10;0.10;;;;;;;23.40;93.47;101985.63;10368316;28;20480;-75
2022/08/24 05:42:39;;;;;;;0.00;0.00;;;;;;;23.77;91.89;101994.06;10368666;28;20531;-75
2022/08/24 05:47:39;;;;;;;0.00;0.00;;;;;;;23.92;90.59;101989.13;10368105;28;20048;-75
2022/08/24 05:52:40;;;;;;;0.00;0.00;;;;;;;24.03;90.28;101995.72;10369283;28;20257;-75
2022/08/24 05:57:42;;;;;;;0.10;0.10;;;;;;;24.25;89.51;101999.75;10379902;28;20049;-75
2022/08/24 06:02:43;;;;;;;0.00;0.00;;;;;;;24.62;88.91;102002.63;10372089;28;20033;-75
2022/08/24 06:07:43;;;;;;;0.10;0.10;;;;;;;24.87;86.11;102007.16;10408099;28;20464;-75
2022/08/24 06:12:44;;;;;;;0.00;0.00;;;;;;;25.10;85.83;102003.78;10408103;28;20025;-75
2022/08/24 06:17:44;;;;;;;0.00;0.00;;;;;;;25.14;84.77;101996.84;10407909;28;20280;-75
2022/08/24 06:22:44;;;;;;;0.00;0.00;;;;;;;25.47;82.53;102001.88;10408100;28;20381;-76
2022/08/24 06:27:44;;;;;;;0.03;0.03;;;;;;;25.67;83.00;102001.63;10385250;28;20009;-75
2022/08/24 06:32:45;;;;;;;0.10;0.10;;;;;;;26.06;82.85;102000.19;10405249;28;20013;-75
2022/08/24 06:37:45;;;;;;;0.10;0.10;;;;;;;26.04;80.52;102009.72;10415651;28;20049;-75
2022/08/24 06:42:47;;;;;;;0.10;0.10;;;;;;;26.31;79.22;102007.38;10415853;28;20033;-76
2022/08/24 06:47:47;;;;;;;0.10;0.10;;;;;;;26.59;78.66;102004.81;10415421;28;20220;-76
2022/08/24 06:52:47;;;;;;;0.00;0.00;;;;;;;26.36;79.91;102005.59;10414386;28;20457;-75
2022/08/24 06:57:48;;;;;;;0.10;0.10;;;;;;;26.52;79.36;101995.06;10389887;28;20085;-76
2022/08/24 07:02:48;;;;;;;0.00;0.00;;;;;;;26.43;78.66;102005.50;10387892;28;20025;-76
2022/08/24 07:07:48;;;;;;;0.00;0.00;;;;;;;26.88;78.03;102007.66;10407342;28;20025;-75
2022/08/24 07:12:49;;;;;;;0.00;0.00;;;;;;;26.96;76.19;102014.66;10374658;28;20265;-76
2022/08/24 07:17:50;;;;;;;0.10;0.10;;;;;;;26.55;78.07;102030.94;10373149;28;20029;-76
2022/08/24 07:22:51;;;;;;;0.05;0.05;;;;;;;26.93;77.63;102028.78;10373857;28;20034;-76
2022/08/24 07:27:51;;;;;;;0.10;0.10;;;;;;;26.94;76.90;102025.00;10371404;28;20471;-76
2022/08/24 07:32:52;;;;;;;0.10;0.10;;;;;;;26.93;75.92;102035.09;10373142;28;20021;-76
2022/08/24 07:37:54;;;;;;;0.10;0.10;;;;;;;26.94;76.11;102034.03;10381109;28;20025;-75
2022/08/24 07:42:56;;;;;;;0.10;0.10;;;;;;;26.87;76.98;102036.88;10412844;28;20472;-76
2022/08/24 07:47:57;;;;;;;0.10;0.10;;;;;;;27.09;75.38;102031.63;10413033;28;20536;-76
2022/08/24 07:52:57;;;;;;;0.10;0.10;;;;;;;27.05;72.08;102046.00;10410889;28;20116;-76
2022/08/24 07:57:58;;;;;;;0.10;0.10;;;;;;;27.05;71.96;102041.41;10386241;28;20025;-76
2022/08/24 08:03:01;;;;;;;0.00;0.00;;;;;;;27.01;72.23;102042.09;10372135;28;20034;-76
2022/08/24 08:08:01;;;;;;;0.00;0.00;;;;;;;27.23;72.05;102050.56;10371696;28;20022;-76
2022/08/24 08:13:03;;;;;;;0.10;0.10;;;;;;;27.58;72.77;102052.31;10375016;28;20112;-76
2022/08/24 08:18:03;;;;;;;0.03;0.03;;;;;;;27.82;70.12;102056.69;10370985;28;20084;-76
2022/08/24 08:28:24;;;;;;;0.10;0.10;;;;;;;28.06;64.40;102064.78;10369749;28;20022;-76
2022/08/24 08:33:24;;;;;;;0.10;0.10;;;;;;;28.33;62.96;102067.72;10370994;28;20464;-77
2022/08/24 08:38:24;;;;;;;0.10;0.10;;;;;;;28.08;60.62;102070.84;10370882;28;20022;-76
2022/08/24 08:43:41;;;;;;;0.10;0.10;;;;;;;28.14;62.38;102069.88;10370611;28;20695;-76
2022/08/24 08:49:05;;;;;;;0.10;0.10;;;;;;;28.01;60.76;102070.97;10402369;28;20501;-76
2022/08/24 08:54:12;;;;;;;0.10;0.10;;;;;;;28.18;60.47;102060.06;10410375;28;20025;-76
2022/08/24 08:59:39;;;;;;;0.10;0.10;;;;;;;28.05;63.14;102060.38;10374100;28;20477;-75
2022/08/24 09:05:01;;;;;;;0.10;0.10;;;;;;;28.10;62.45;102068.69;10365435;28;20104;-76
2022/08/24 09:10:11;;;;;;;0.00;0.00;;;;;;;27.62;66.22;102054.34;10370367;28;20025;-76
2022/08/24 09:15:26;;;;;;;0.10;0.10;;;;;;;27.64;64.99;102052.22;10369280;28;20429;-76
2022/08/24 09:21:01;;;;;;;0.10;0.10;;;;;;;27.71;63.82;102060.25;10368558;28;20576;-76
2022/08/24 09:26:28;;;;;;;0.05;0.05;;;;;;;27.65;63.85;102053.03;10369266;28;20026;-76
2022/08/24 09:31:50;;;;;;;0.00;0.00;;;;;;;27.41;65.09;102057.75;10376140;28;20484;-76
2022/08/24 09:37:08;;;;;;;0.10;0.10;;;;;;;27.30;64.60;102059.44;10368892;28;20022;-76
2022/08/24 09:42:20;;;;;;;0.00;0.00;;;;;;;27.60;64.19;102052.94;10369537;28;20540;-76
2022/08/24 09:47:34;;;;;;;0.10;0.10;;;;;;;27.44;64.40;102049.91;10366331;28;20024;-76
2022/08/24 09:52:40;;;;;;;0.10;0.10;;;;;;;27.58;65.24;102046.84;10369668;28;20018;-76
2022/08/24 09:58:19;;;;;;;0.10;0.10;;;;;;;27.67;63.96;102045.41;10380924;28;20083;-76
2022/08/24 10:03:35;;;;;;;0.10;0.10;;;;;;;27.82;63.98;102044.91;10360166;28;20092;-76
2022/08/24 10:09:26;;;;;;;0.00;0.00;;;;;;;27.87;62.95;102042.28;10367932;28;20105;-76
2022/08/24 10:14:40;;;;;;;;;;;;;;;27.97;62.77;102032.31;10368503;28;20486;-76
2022/08/24 10:19:52;;;;;;;0.10;0.10;;;;;;;28.16;60.29;102035.66;10368050;28;20435;-76
2022/08/24 10:25:14;;;;;;;0.00;0.00;;;;;;;28.21;62.38;102029.44;10366050;28;20026;-76
2022/08/24 10:30:39;;;;;;;0.00;0.00;;;;;;;28.15;61.94;102022.22;10378231;28;20029;-76
2022/08/24 10:35:58;;;;;;;0.00;0.00;;;;;;;28.45;59.57;102030.16;10367327;28;20382;-76
2022/08/24 10:41:14;;;;;;;0.00;0.00;;;;;;;28.47;54.31;102030.72;10367457;28;20018;-76
2022/08/24 10:46:42;;;;;;;0.10;0.10;;;;;;;28.05;53.64;102020.13;10366807;28;20101;-76
2022/08/24 10:52:23;;;;;;;0.00;0.00;;;;;;;27.99;53.41;102016.47;10406956;28;20500;-76
2022/08/24 10:57:37;;;;;;;0.00;0.00;;;;;;;28.11;53.26;102019.13;10382090;28;20140;-76
2022/08/24 11:02:40;;;;;;;0.00;0.00;;;;;;;28.23;53.96;102016.31;10380982;28;20033;-76
2022/08/24 11:08:26;;;;;;;0.00;0.00;;;;;;;28.28;53.13;102026.53;10407133;28;20025;-76
2022/08/24 11:13:26;;;;;;;0.10;0.10;;;;;;;28.39;48.92;102029.19;10396380;28;20044;-76
2022/08/24 11:18:53;;;;;;;0.10;0.10;;;;;;;28.48;52.43;102013.19;10408532;28;20036;-76
2022/08/24 11:23:53;;;;;;;0.00;0.00;;;;;;;28.56;49.37;102028.38;10385974;28;20026;-76
2022/08/24 11:28:59;;;;;;;0.00;0.00;;;;;;;28.77;49.96;102015.78;10373181;28;20377;-76
2022/08/24 11:34:07;;;;;;;0.10;0.10;;;;;;;28.97;51.12;102015.25;10373169;28;20022;-76
2022/08/24 11:39:16;;;;;;;0.05;0.05;;;;;;;28.89;49.75;102019.28;10388539;28;20492;-76
2022/08/24 11:44:44;;;;;;;0.08;0.08;;;;;;;28.96;49.62;102021.81;10413676;28;20013;-76
2022/08/24 11:49:53;;;;;;;0.10;0.10;;;;;;;28.70;52.79;102018.72;10411923;28;20022;-77
2022/08/24 11:54:59;;;;;;;0.00;0.00;;;;;;;28.86;53.78;102026.09;10411406;28;20563;-76
2022/08/24 12:00:11;;;;;;;0.00;0.00;;;;;;;28.71;52.46;102023.16;10371939;28;20026;-76
2022/08/24 12:05:39;;;;;;;0.10;0.10;;;;;;;28.55;51.45;102026.72;10372117;28;20018;-75
2022/08/24 12:11:19;;;;;;;0.00;0.00;;;;;;;28.68;51.43;102018.13;10371660;28;20025;-76
2022/08/24 12:16:49;;;;;;;0.10;0.10;;;;;;;28.67;54.37;102008.25;10372576;28;20026;-77
2022/08/24 12:21:53;;;;;;;0.00;0.00;;;;;;;28.80;50.66;102012.56;10371379;28;20036;-75
2022/08/24 12:27:01;;;;;;;0.00;0.00;;;;;;;29.10;51.01;102012.19;10369207;28;20053;-76
2022/08/24 12:32:09;;;;;;;0.00;0.00;;;;;;;29.19;51.70;101999.66;10369492;28;20018;-76
2022/08/24 12:37:33;;;;;;;0.00;0.00;;;;;;;29.34;51.15;102007.25;10369292;28;20022;-76
2022/08/24 12:42:53;;;;;;;0.10;0.10;;;;;;;29.05;50.21;102004.69;10369583;28;20501;-76
2022/08/24 12:47:57;;;;;;;0.10;0.10;;;;;;;29.16;50.91;102008.41;10375478;28;20024;-76
2022/08/24 12:53:26;;;;;;;0.00;0.00;;;;;;;29.17;49.79;102001.00;10369360;28;20497;-76
2022/08/24 12:58:53;;;;;;;0.00;0.00;;;;;;;29.05;48.87;101990.97;10369707;28;20022;-76
2022/08/24 13:04:36;;;;;;;0.00;0.00;;;;;;;28.99;50.50;101988.41;10366886;28;20056;-76
2022/08/24 13:09:46;;;;;;;0.00;0.00;;;;;;;28.86;50.64;101993.19;10369472;28;20029;-76
2022/08/24 13:14:49;;;;;;;0.10;0.10;;;;;;;29.05;48.29;101990.16;10368924;28;20091;-76
2022/08/24 13:20:35;;;;;;;0.00;0.00;;;;;;;29.22;46.94;102001.91;10384999;28;20279;-76
2022/08/24 13:25:50;;;;;;;0.10;0.10;;;;;;;29.07;48.96;101993.47;10388068;28;20382;-75
2022/08/24 13:30:56;;;;;;;0.00;0.00;;;;;;;29.03;48.44;101992.31;10368756;28;20531;-76
2022/08/24 13:36:02;;;;;;;0.10;0.10;;;;;;;28.88;50.55;101991.00;10366525;28;20026;-76
2022/08/24 13:41:37;;;;;;;0.10;0.10;;;;;;;28.97;49.30;101994.13;10394550;28;20079;-76
2022/08/24 13:46:59;;;;;;;0.00;0.00;;;;;;;29.15;48.04;101981.22;10408629;28;20013;-76
2022/08/24 13:52:10;;;;;;;0.00;0.00;;;;;;;29.09;48.29;101988.59;10408967;28;20021;-76
2022/08/24 13:57:25;;;;;;;0.00;0.00;;;;;;;28.95;48.26;101982.59;10384861;28;20037;-76
2022/08/24 14:02:41;;;;;;;0.10;0.10;;;;;;;28.92;46.23;101987.78;10366730;28;20078;-76
2022/08/24 14:08:19;;;;;;;0.00;0.00;;;;;;;29.00;47.41;101981.81;10367528;28;20017;-75
2022/08/24 14:13:48;;;;;;;0.00;0.00;;;;;;;28.94;45.84;101972.69;10367618;28;20029;-76
2022/08/24 14:19:05;;;;;;;0.10;0.10;;;;;;;28.91;45.99;101975.13;10375448;28;20037;-75
2022/08/24 14:24:22;;;;;;;0.10;0.10;;;;;;;28.80;42.81;101975.00;10365893;28;20017;-76
2022/08/24 14:29:30;;;;;;;0.10;0.10;;;;;;;28.83;44.60;101973.69;10367434;28;20053;-76
2022/08/24 14:34:54;;;;;;;0.10;0.10;;;;;;;28.79;45.29;101969.78;10401685;28;20168;-75
2022/08/24 14:40:16;;;;;;;0.10;0.10;;;;;;;28.81;45.00;101965.69;10406921;28;20060;-75
2022/08/24 14:45:26;;;;;;;0.10;0.10;;;;;;;28.92;45.27;101966.66;10408041;28;20021;-76
2022/08/24 14:50:34;;;;;;;0.00;0.00;;;;;;;28.93;44.21;101962.00;10408174;28;20496;-76
2022/08/24 14:55:51;;;;;;;0.00;0.00;;;;;;;28.76;43.53;101968.34;10408504;28;20024;-76
2022/08/24 15:01:13;;;;;;;0.00;0.00;;;;;;;28.56;46.82;101954.38;10374592;28;20038;-76
2022/08/24 15:06:47;;;;;;;0.00;0.00;;;;;;;28.49;46.75;101951.81;10411619;28;20405;-75
2022/08/24 15:11:49;;;;;;;0.00;0.00;;;;;;;28.49;47.13;101957.31;10416458;28;20029;-75
2022/08/24 15:16:58;;;;;;;0.05;0.05;;;;;;;28.46;49.07;101946.03;10388868;28;20026;-76
2022/08/24 15:22:01;;;;;;;0.08;0.08;;;;;;;28.39;49.11;101946.16;10374348;28;20539;-76
2022/08/24 15:27:25;;;;;;;0.00;0.00;;;;;;;28.31;47.61;101944.69;10373719;28;20101;-77
2022/08/24 15:32:43;;;;;;;0.00;0.00;;;;;;;28.16;47.85;101942.53;10372525;28;20033;-76
2022/08/24 15:37:43;;;;;;;0.10;0.10;;;;;;;28.13;48.62;101942.19;10376446;28;20037;-76
2022/08/24 15:42:46;;;;;;;0.00;0.00;;;;;;;28.05;48.52;101937.16;10373620;28;20487;-76
2022/08/24 15:47:48;;;;;;;0.00;0.00;;;;;;;27.95;47.46;101935.88;10409854;28;20028;-76
2022/08/24 15:53:00;;;;;;;;;;;;;;;27.89;48.68;101936.88;10414513;28;20026;-76
2022/08/24 15:58:37;;;;;;;0.00;0.00;;;;;;;27.86;48.46;101942.03;10383415;28;20364;-76
2022/08/24 16:03:41;;;;;;;0.10;0.10;;;;;;;27.83;48.78;101932.41;10371972;28;20026;-75
2022/08/24 16:09:04;;;;;;;0.10;0.10;;;;;;;27.76;49.57;101931.72;10372589;28;20022;-76
2022/08/24 16:14:27;;;;;;;0.00;0.00;;;;;;;27.69;49.54;101933.75;10381473;28;20087;-76
2022/08/24 16:19:32;;;;;;;0.10;0.10;;;;;;;27.66;51.33;101926.88;10372144;28;20041;-76
2022/08/24 16:24:35;;;;;;;0.10;0.10;;;;;;;27.64;51.22;101933.69;10371658;28;20279;-75
2022/08/24 16:29:36;;;;;;;0.10;0.10;;;;;;;27.59;47.77;101939.06;10371104;28;20469;-75
2022/08/24 16:34:37;;;;;;;0.10;0.10;;;;;;;27.53;50.38;101941.72;10371080;28;20018;-76
2022/08/24 16:39:38;;;;;;;0.00;0.00;;;;;;;27.44;50.78;101934.16;10371133;28;20033;-75
2022/08/24 16:44:41;;;;;;;0.00;0.00;;;;;;;27.39;50.59;101940.34;10371023;28;20026;-75
2022/08/24 16:49:43;;;;;;;0.00;0.00;;;;;;;27.31;49.88;101954.41;10404490;28;20460;-75
2022/08/24 16:54:44;;;;;;;0.00;0.00;;;;;;;27.18;48.20;101947.34;10411269;28;20017;-75
2022/08/24 16:59:47;;;;;;;0.00;0.00;;;;;;;27.07;49.49;101934.50;10369814;28;20102;-76
2022/08/24 17:04:48;;;;;;;0.10;0.10;;;;;;;26.97;48.70;101940.59;10369754;28;20021;-75
2022/08/24 17:09:49;;;;;;;0.10;0.10;;;;;;;26.87;47.28;101938.47;10368798;28;20038;-76
2022/08/24 17:14:49;;;;;;;0.00;0.00;;;;;;;26.77;47.09;101940.16;10369149;28;20177;-75
2022/08/24 17:19:52;;;;;;;0.00;0.00;;;;;;;26.64;48.10;101952.16;10376324;28;20108;-76
2022/08/24 17:24:53;;;;;;;0.10;0.10;;;;;;;26.50;47.91;101943.41;10408490;28;20021;-76
2022/08/24 17:29:53;;;;;;;0.00;0.00;;;;;;;26.37;48.55;101943.63;10368606;28;20452;-75
2022/08/24 17:34:54;;;;;;;0.00;0.00;;;;;;;26.24;49.45;101957.50;10387465;28;20037;-75
2022/08/24 17:39:57;;;;;;;0.00;0.00;;;;;;;26.05;49.28;101954.88;10409940;28;20025;-75
2022/08/24 17:44:58;;;;;;;0.03;0.03;;;;;;;25.87;50.52;101963.97;10409042;28;20026;-75
2022/08/24 17:49:59;;;;;;;0.00;0.00;;;;;;;25.67;51.30;101953.31;10408948;28;20429;-75
2022/08/24 17:54:59;;;;;;;0.10;0.10;;;;;;;25.42;52.84;101964.38;10397090;28;20492;-75
2022/08/24 18:00:00;;;;;;;0.00;0.00;;;;;;;25.18;54.75;101970.78;10368258;28;20056;-75
2022/08/24 18:05:01;;;;;;;0.00;0.00;;;;;;;24.92;55.51;101972.72;10367169;28;20401;-75
2022/08/24 18:10:06;;;;;;;0.00;0.00;;;;;;;24.65;56.61;101977.66;10368128;28;20021;-74
2022/08/24 18:15:07;;;;;;;0.00;0.00;;;;;;;24.38;57.83;101988.75;10366571;28;20072;-75
2022/08/24 18:20:10;;;;;;;0.03;0.03;;;;;;;24.12;58.58;101986.28;10366909;28;20060;-75
2022/08/24 18:25:16;;;;;;;0.10;0.10;;;;;;;23.87;59.68;102000.66;10366753;28;20029;-75
2022/08/24 18:30:21;;;;;;;0.00;0.00;;;;;;;23.61;61.01;102004.34;10382352;28;20025;-75
2022/08/24 18:35:22;;;;;;;0.00;0.00;;;;;;;23.34;61.76;102011.78;10367059;28;20025;-74
2022/08/24 18:40:25;;;;;;;0.00;0.00;;;;;;;23.07;62.87;102016.50;10367453;28;20084;-75
2022/08/24 18:45:29;;;;;;;0.00;0.00;;;;;;;22.76;63.59;102022.59;10365363;28;20010;-75
2022/08/24 18:50:31;;;;;;;0.10;0.10;;;;;;;22.49;64.83;102036.19;10366641;28;20026;-75
2022/08/24 18:55:31;;;;;;;0.00;0.00;;;;;;;22.41;76.38;102035.56;10366152;28;20025;-74
2022/08/24 19:00:32;;;;;;;0.10;0.10;;;;;;;22.44;84.41;102043.28;10365351;28;20022;-74
2022/08/24 19:05:32;;;;;;;0.00;0.00;;;;;;;22.44;88.71;102051.44;10369353;28;20109;-74
2022/08/24 19:10:35;;;;;;;0.00;0.00;;;;;;;22.33;90.65;102050.16;10366675;28;20046;-74
2022/08/24 19:15:36;;;;;;;0.00;0.00;;;;;;;22.20;95.04;102050.16;10365646;28;20022;-75
2022/08/24 19:20:40;;;;;;;0.10;0.10;;;;;;;22.07;96.37;102057.19;10366417;28;20017;-74
2022/08/24 19:25:42;;;;;;;0.00;0.00;;;;;;;21.90;98.31;102050.47;10366411;28;20018;-74
2022/08/24 19:30:45;;;;;;;0.10;0.10;;;;;;;21.74;99.90;102051.69;10366612;28;20061;-74
2022/08/24 19:35:45;;;;;;;0.00;0.00;;;;;;;21.59;100.00;102070.81;10368535;28;20021;-74
2022/08/24 19:40:46;;;;;;;0.10;0.10;;;;;;;21.44;100.00;102068.25;10370557;28;20028;-73
2022/08/24 19:46:02;;;;;;;0.00;0.00;;;;;;;21.32;100.00;102075.25;10373029;28;20026;-74
2022/08/24 19:51:08;;;;;;;0.00;0.00;;;;;;;21.20;100.00;102071.41;10372942;28;20508;-74
2022/08/24 19:56:09;;;;;;;0.10;0.10;;;;;;;21.08;100.00;102076.53;10372242;28;20040;-74
2022/08/24 20:01:12;;;;;;;0.10;0.10;;;;;;;20.96;100.00;102075.44;10372591;28;20101;-74
2022/08/24 20:06:13;;;;;;;0.00;0.00;;;;;;;20.86;100.00;102072.25;10371122;28;20033;-75
2022/08/24 20:11:14;;;;;;;0.10;0.10;;;;;;;20.71;100.00;102081.28;10383353;28;20028;-74
2022/08/24 20:16:17;;;;;;;0.00;0.00;;;;;;;20.61;100.00;102079.94;10413258;28;20045;-75
2022/08/24 20:21:17;;;;;;;0.00;0.00;;;;;;;20.51;100.00;102082.97;10414291;28;20084;-74
2022/08/24 20:26:18;;;;;;;0.10;0.10;;;;;;;20.40;100.00;102091.59;10378044;28;20033;-74
2022/08/24 20:31:20;;;;;;;0.10;0.10;;;;;;;20.31;100.00;102094.44;10372137;28;20033;-75
2022/08/24 20:36:25;;;;;;;0.00;0.00;;;;;;;20.20;100.00;102086.81;10369431;28;20022;-74
2022/08/24 20:41:26;;;;;;;0.10;0.10;;;;;;;20.09;100.00;102101.69;10371401;28;20036;-74
2022/08/24 20:46:27;;;;;;;0.10;0.10;;;;;;;19.97;100.00;102092.38;10384666;28;20010;-74
2022/08/24 20:51:28;;;;;;;0.00;0.00;;;;;;;19.85;100.00;102096.63;10370141;28;20026;-74
2022/08/24 20:56:36;;;;;;;0.00;0.00;;;;;;;19.68;100.00;102090.59;10369813;28;20030;-74
2022/08/24 21:01:41;;;;;;;0.10;0.10;;;;;;;19.54;100.00;102097.66;10369741;28;20362;-74
2022/08/24 21:06:42;;;;;;;0.10;0.10;;;;;;;19.37;100.00;102094.31;10369631;28;20045;-74
2022/08/24 21:11:45;;;;;;;0.10;0.10;;;;;;;19.19;100.00;102094.66;10369050;28;20439;-74
2022/08/24 21:16:45;;;;;;;0.00;0.00;;;;;;;19.06;100.00;102099.06;10409673;28;20538;-74
2022/08/24 21:21:46;;;;;;;0.10;0.10;;;;;;;19.00;100.00;102100.63;10404481;28;20062;-74
2022/08/24 21:26:46;;;;;;;0.10;0.10;;;;;;;18.95;100.00;102100.31;10369660;28;20025;-74
2022/08/24 21:34:39;;;;;;;0.00;0.00;;;;;;;18.90;100.00;102095.47;10383863;28;20035;-74
2022/08/24 21:37:10;;;;;;;0.00;0.00;;;;;;;18.88;100.00;102102.06;10368003;28;20312;-74
2022/08/24 21:42:11;;;;;;;0.10;0.10;;;;;;;18.85;100.00;102105.13;10368538;28;20034;-74
2022/08/24 21:47:12;;;;;;;0.00;0.00;;;;;;;18.79;100.00;102104.00;10367765;28;20523;-74
2022/08/24 21:52:12;;;;;;;0.10;0.10;;;;;;;18.70;100.00;102110.47;10367979;28;20033;-74
2022/08/24 21:57:14;;;;;;;0.00;0.00;;;;;;;18.60;100.00;102105.31;10383536;28;20524;-74
2022/08/24 22:02:14;;;;;;;0.10;0.10;;;;;;;18.50;100.00;102110.97;10407895;28;20021;-74
2022/08/24 22:07:15;;;;;;;0.10;0.10;;;;;;;18.44;100.00;102105.44;10407899;28;20026;-74
2022/08/24 22:12:15;;;;;;;0.10;0.10;;;;;;;18.35;100.00;102103.81;10364842;28;20489;-74
2022/08/24 22:17:16;;;;;;;0.10;0.10;;;;;;;18.24;100.00;102099.72;10366806;28;20029;-74
2022/08/24 22:22:16;;;;;;;0.00;0.00;;;;;;;18.16;100.00;102103.28;10365825;28;20117;-74
2022/08/24 22:27:17;;;;;;;0.10;0.10;;;;;;;18.08;100.00;102103.31;10366678;28;20018;-74
2022/08/24 22:32:17;;;;;;;0.10;0.10;;;;;;;18.00;100.00;102095.28;10389234;28;20473;-74
2022/08/24 22:37:17;;;;;;;0.10;0.10;;;;;;;17.94;100.00;102091.44;10407123;28;20026;-74
2022/08/24 22:42:18;;;;;;;0.00;0.00;;;;;;;17.89;100.00;102088.47;10425281;22;20060;-73
2022/08/24 22:47:18;;;;;;;0.08;0.08;;;;;;;17.83;100.00;102087.31;10430491;28;20029;-73
2022/08/24 22:52:18;;;;;;;0.10;0.10;;;;;;;17.78;100.00;102080.75;10424457;28;20025;-73
2022/08/24 22:57:19;;;;;;;0.10;0.10;;;;;;;17.76;100.00;102085.44;10420501;28;20314;-73
2022/08/24 23:02:19;;;;;;;0.10;0.10;;;;;;;17.71;100.00;102083.25;10430566;28;20021;-73
2022/08/24 23:07:20;;;;;;;0.10;0.10;;;;;;;17.67;100.00;102078.41;10420846;28;20020;-73
2022/08/24 23:12:23;;;;;;;0.10;0.10;;;;;;;17.63;100.00;102078.78;10424295;28;20313;-74
2022/08/24 23:17:23;;;;;;;0.10;0.10;;;;;;;17.69;100.00;102079.09;10439201;28;20020;-73
2022/08/24 23:22:23;;;;;;;0.10;0.10;;;;;;;17.74;100.00;102082.91;10433442;28;20025;-73
2022/08/24 23:27:24;;;;;;;0.07;0.07;;;;;;;17.82;100.00;102087.47;10421976;28;20021;-73